Shades Of Gray — WDI3426 — position and weather

sailwx.info

Track history (hours):
 
Tides and Currents Weather Stations Pressure Air Temp Water Temp Dewpoint Dewpoint Depression Visibility Wind Speed Wind Dir Waves Ship Positions

Shades Of Gray

Owner: Epstein, Michael S, Arnold, MD. More information available from US FCC via Universal Licensing System and Coast Guard Vessel Documentation Center.

Last reported at 2018-Feb-24 15:20 UTC. Time now 2018-Feb-25 23:37 UTC.
Position N 25°38' W 080°08'.

Type: Pleasure craft. MMSI: 367686340.

Date/timePositionNaut miles runAvg speedWind from/ knotsBaromVisibWave heightAir tempDewpointWater temp
2018-Feb-24 15:20N 25°38' W 080°08'3 7.0
2018-Feb-24 14:51N 25°40' W 080°10'0 0.0
2018-Feb-24 14:30N 25°40' W 080°10'0 0.0
2018-Feb-24 14:00N 25°40' W 080°10'0 0.0
2018-Feb-24 13:27N 25°40' W 080°10'0 0.0
2018-Feb-24 12:57N 25°40' W 080°10'0 0.1
2018-Feb-24 12:24N 25°40' W 080°10'0 0.0
2018-Feb-24 12:00N 25°40' W 080°10'0 0.0
2018-Feb-24 11:30N 25°40' W 080°10'0 0.0
2018-Feb-24 11:00N 25°40' W 080°10'0 0.0
2018-Feb-24 10:24N 25°40' W 080°10'0 0.0
2018-Feb-24 09:54N 25°40' W 080°10'0 0.0
2018-Feb-24 09:30N 25°40' W 080°10'0 0.0
2018-Feb-24 08:57N 25°40' W 080°10'0 0.0
2018-Feb-24 08:30N 25°40' W 080°10'0 0.0
2018-Feb-24 07:57N 25°40' W 080°10'0 0.0
2018-Feb-24 07:30N 25°40' W 080°10'0 0.0
2018-Feb-24 07:00N 25°40' W 080°10'0 0.0
2018-Feb-24 06:30N 25°40' W 080°10'0 0.0
2018-Feb-24 05:57N 25°40' W 080°10'0 0.0
2018-Feb-24 05:30N 25°40' W 080°10'0 0.0
2018-Feb-24 05:00N 25°40' W 080°10'0 0.0
2018-Feb-24 04:30N 25°40' W 080°10'0 0.0
2018-Feb-24 04:00N 25°40' W 080°10'0 0.0
2018-Feb-24 03:30N 25°40' W 080°10'0 0.0
2018-Feb-24 03:00N 25°40' W 080°10'0 0.0
2018-Feb-24 02:30N 25°40' W 080°10'0 0.0
2018-Feb-24 02:00N 25°40' W 080°10'0 0.0
2018-Feb-24 01:27N 25°40' W 080°10'0 0.5
2018-Feb-24 01:00N 25°41' W 080°10'611.1
2018-Feb-24 00:30N 25°46' W 080°11'4 9.0
2018-Feb-24 00:00N 25°50' W 080°10'5 9.6
2018-Feb-23 23:29N 25°55' W 080°08'4 7.2
2018-Feb-23 22:58N 25°58' W 080°07'3 7.4
2018-Feb-23 22:30N 26°02' W 080°07'4 7.0
2018-Feb-23 21:58N 26°06' W 080°06'2 4.8
2018-Feb-23 21:30N 26°04' W 080°07'1 2.1
2018-Feb-23 21:00N 26°04' W 080°09'0 0.0
2018-Feb-23 20:30N 26°04' W 080°09'0 0.0
2018-Feb-23 20:00N 26°04' W 080°09'0 0.0
2018-Feb-23 19:29N 26°04' W 080°09'0 0.0
2018-Feb-23 19:00N 26°04' W 080°09'0 0.0
2018-Feb-23 18:30N 26°04' W 080°09'0 0.0
2018-Feb-23 17:59N 26°04' W 080°09'0 0.0
2018-Feb-23 17:30N 26°04' W 080°09'0 0.0
2018-Feb-23 16:59N 26°04' W 080°09'0 0.0
2018-Feb-23 16:30N 26°04' W 080°09'0 0.0
2018-Feb-23 15:59N 26°04' W 080°09'0 0.0
2018-Feb-23 15:29N 26°04' W 080°09'0 0.0
2018-Feb-23 15:00N 26°04' W 080°09'0 0.0
2018-Feb-23 14:30N 26°04' W 080°09'0 0.0
2018-Feb-23 13:59N 26°04' W 080°09'0 0.0
2018-Feb-23 13:29N 26°04' W 080°09'0 0.0
2018-Feb-23 13:00N 26°04' W 080°09'0 0.0
2018-Feb-23 12:29N 26°04' W 080°09'0 0.0
2018-Feb-23 11:59N 26°04' W 080°09'0 0.0
2018-Feb-23 11:30N 26°04' W 080°09'0 0.0
2018-Feb-23 11:00N 26°04' W 080°09'0 0.0
2018-Feb-23 10:30N 26°04' W 080°09'0 0.0
2018-Feb-23 09:58N 26°04' W 080°09'0 0.0
2018-Feb-23 09:29N 26°04' W 080°09'0 0.0
2018-Feb-23 08:55N 26°04' W 080°09'0 0.0
2018-Feb-23 08:28N 26°04' W 080°09'0 0.0
2018-Feb-23 07:58N 26°04' W 080°09'0 0.0
2018-Feb-23 07:29N 26°04' W 080°09'0 0.0
2018-Feb-23 06:55N 26°04' W 080°09'0 0.0
2018-Feb-23 06:25N 26°04' W 080°09'0 0.0
2018-Feb-23 05:59N 26°04' W 080°09'0 0.0
2018-Feb-23 05:29N 26°04' W 080°09'0 0.0
2018-Feb-23 04:59N 26°04' W 080°09'0 0.0
2018-Feb-23 04:29N 26°04' W 080°09'0 0.0
2018-Feb-23 03:59N 26°04' W 080°09'0 0.0
2018-Feb-23 03:29N 26°04' W 080°09'0 0.0
2018-Feb-23 02:59N 26°04' W 080°09'0 0.0
2018-Feb-23 02:29N 26°04' W 080°09'0 0.0
2018-Feb-23 01:59N 26°04' W 080°09'0 0.0
2018-Feb-23 01:29N 26°04' W 080°09'0 0.0
2018-Feb-23 00:59N 26°04' W 080°09'0 0.0
2018-Feb-23 00:29N 26°04' W 080°09'0 0.0
2018-Feb-22 23:59N 26°04' W 080°09'0 0.0
2018-Feb-22 23:29N 26°04' W 080°09'0 0.0
2018-Feb-22 22:59N 26°04' W 080°09'0 0.0
2018-Feb-22 22:29N 26°04' W 080°09'0 0.0
2018-Feb-22 21:59N 26°04' W 080°09'0 0.0
2018-Feb-22 21:29N 26°04' W 080°09'0 0.0
2018-Feb-22 20:59N 26°04' W 080°09'0 0.0
2018-Feb-22 20:29N 26°04' W 080°09'0 0.0
2018-Feb-22 19:59N 26°04' W 080°09'0 0.0
2018-Feb-22 19:29N 26°04' W 080°09'0 0.0
2018-Feb-22 18:59N 26°04' W 080°09'0 0.0
2018-Feb-22 18:29N 26°04' W 080°09'0 0.0
2018-Feb-22 17:59N 26°04' W 080°09'0 0.0
2018-Feb-22 17:29N 26°04' W 080°09'0 0.0
2018-Feb-22 16:59N 26°04' W 080°09'0 0.0
2018-Feb-22 16:29N 26°04' W 080°09'0 0.0
2018-Feb-22 15:59N 26°04' W 080°09'0 0.0
2018-Feb-22 15:29N 26°04' W 080°09'0 0.0
2018-Feb-22 14:59N 26°04' W 080°09'0 0.0
2018-Feb-22 14:29N 26°04' W 080°09'0 0.0
2018-Feb-22 13:59N 26°04' W 080°09'0 0.0
2018-Feb-22 13:29N 26°04' W 080°09'0 0.0
2018-Feb-22 12:59N 26°04' W 080°09'0 0.0
2018-Feb-22 12:29N 26°04' W 080°09'0 0.0
2018-Feb-22 11:59N 26°04' W 080°09'0 0.0
2018-Feb-22 11:29N 26°04' W 080°09'0 0.0
2018-Feb-22 10:59N 26°04' W 080°09'0 0.0
2018-Feb-22 10:29N 26°04' W 080°09'0 0.0
2018-Feb-22 09:59N 26°04' W 080°09'0 0.0
2018-Feb-22 09:29N 26°04' W 080°09'0 0.0
2018-Feb-22 08:59N 26°04' W 080°09'0 0.0
2018-Feb-22 08:29N 26°04' W 080°09'0 0.0
2018-Feb-22 07:59N 26°04' W 080°09'0 0.0
2018-Feb-22 07:29N 26°04' W 080°09'0 0.0
2018-Feb-22 06:59N 26°04' W 080°09'0 0.0
2018-Feb-22 06:29N 26°04' W 080°09'0 0.0
2018-Feb-22 05:59N 26°04' W 080°09'0 0.0
2018-Feb-22 05:29N 26°04' W 080°09'0 0.0
2018-Feb-22 04:59N 26°04' W 080°09'0 0.0
2018-Feb-22 04:29N 26°04' W 080°09'0 0.0
2018-Feb-22 03:59N 26°04' W 080°09'0 0.0
2018-Feb-22 03:26N 26°04' W 080°09'0 0.0
2018-Feb-22 02:59N 26°04' W 080°09'0 0.0
2018-Feb-22 02:29N 26°04' W 080°09'0 0.0
2018-Feb-22 01:59N 26°04' W 080°09'0 0.0
2018-Feb-22 01:29N 26°04' W 080°09'0 0.0
2018-Feb-22 00:59N 26°04' W 080°09'0 0.0
2018-Feb-22 00:29N 26°04' W 080°09'0 0.0
2018-Feb-21 23:59N 26°04' W 080°09'0 0.0
2018-Feb-21 23:29N 26°04' W 080°09'0 0.0
2018-Feb-21 22:59N 26°04' W 080°09'0 0.0
2018-Feb-21 22:29N 26°04' W 080°09'0 0.0
2018-Feb-21 21:59N 26°04' W 080°09'0 0.0
2018-Feb-21 21:29N 26°04' W 080°09'0 0.0
2018-Feb-21 20:59N 26°04' W 080°09'0 0.0
2018-Feb-21 20:29N 26°04' W 080°09'0 0.0
2018-Feb-21 19:59N 26°04' W 080°09'0 0.0
2018-Feb-21 19:29N 26°04' W 080°09'0 0.0
2018-Feb-21 18:59N 26°04' W 080°09'0 0.0
2018-Feb-21 18:29N 26°04' W 080°09'0 0.0
2018-Feb-21 17:59N 26°04' W 080°09'0 0.0
2018-Feb-21 17:29N 26°04' W 080°09'0 0.0
2018-Feb-21 16:59N 26°04' W 080°09'0 0.0
2018-Feb-21 16:28N 26°04' W 080°09'0 0.0
2018-Feb-21 15:58N 26°04' W 080°09'0 0.0
2018-Feb-21 15:30N 26°04' W 080°09'0 0.0
2018-Feb-21 14:58N 26°04' W 080°09'0 0.0
2018-Feb-21 14:28N 26°04' W 080°09'0 0.0
2018-Feb-21 13:58N 26°04' W 080°09'0 0.0
2018-Feb-21 13:28N 26°04' W 080°09'0 0.0
2018-Feb-21 12:58N 26°04' W 080°09'0 0.0
2018-Feb-21 12:28N 26°04' W 080°09'0 0.0
2018-Feb-21 11:58N 26°04' W 080°09'0 0.0
2018-Feb-21 11:28N 26°04' W 080°09'0 0.0
2018-Feb-21 10:58N 26°04' W 080°09'0 0.0
2018-Feb-21 10:28N 26°04' W 080°09'0 0.0
2018-Feb-21 09:58N 26°04' W 080°09'0 0.0
2018-Feb-21 09:28N 26°04' W 080°09'0 0.0
2018-Feb-21 08:58N 26°04' W 080°09'0 0.0
2018-Feb-21 08:28N 26°04' W 080°09'0 0.0
2018-Feb-21 07:58N 26°04' W 080°09'0 0.0
2018-Feb-21 07:28N 26°04' W 080°09'0 0.0
2018-Feb-21 06:58N 26°04' W 080°09'0 0.0
2018-Feb-21 06:28N 26°04' W 080°09'0 0.0
2018-Feb-21 05:58N 26°04' W 080°09'0 0.0
2018-Feb-21 05:28N 26°04' W 080°09'0 0.0
2018-Feb-21 04:58N 26°04' W 080°09'0 0.1
2018-Feb-21 04:28N 26°04' W 080°09'0 0.0
2018-Feb-21 03:58N 26°04' W 080°09'0 0.0
2018-Feb-21 03:28N 26°04' W 080°09'0 0.0
2018-Feb-21 02:58N 26°04' W 080°09'0 0.0
2018-Feb-21 02:28N 26°04' W 080°09'0 0.0
2018-Feb-21 01:58N 26°04' W 080°09'0 0.0
2018-Feb-21 01:28N 26°04' W 080°09'0 0.0
2018-Feb-21 00:58N 26°04' W 080°09'0 0.0
2018-Feb-21 00:28N 26°04' W 080°09'0 0.0
2018-Feb-20 23:59N 26°04' W 080°09'0 0.0
2018-Feb-20 23:29N 26°04' W 080°09'0 0.0
2018-Feb-20 22:59N 26°04' W 080°09'0 0.0
2018-Feb-20 22:29N 26°04' W 080°09'0 0.0
2018-Feb-20 21:59N 26°04' W 080°09'0 0.0
2018-Feb-20 21:29N 26°04' W 080°09'0 0.0
2018-Feb-20 20:59N 26°04' W 080°09'0 0.0
2018-Feb-20 20:29N 26°04' W 080°09'0 0.0
2018-Feb-20 19:59N 26°04' W 080°09'0 0.0
2018-Feb-20 19:29N 26°04' W 080°09'0 0.0
2018-Feb-20 18:59N 26°04' W 080°09'0 0.0
2018-Feb-20 18:29N 26°04' W 080°09'0 0.0
2018-Feb-20 17:59N 26°04' W 080°09'0 0.0
2018-Feb-20 17:29N 26°04' W 080°09'0 0.0
2018-Feb-20 16:59N 26°04' W 080°09'0 0.0
2018-Feb-20 16:29N 26°04' W 080°09'0 0.0
2018-Feb-20 15:59N 26°04' W 080°09'0 0.0
2018-Feb-20 15:29N 26°04' W 080°09'0 0.0
2018-Feb-20 14:59N 26°04' W 080°09'0 0.0
2018-Feb-20 14:29N 26°04' W 080°09'0 0.0
2018-Feb-20 13:59N 26°04' W 080°09'0 0.0
2018-Feb-20 13:29N 26°04' W 080°09'0 0.0
2018-Feb-20 12:59N 26°04' W 080°09'0 0.0
2018-Feb-20 12:29N 26°04' W 080°09'0 0.0
2018-Feb-20 11:59N 26°04' W 080°09'0 0.0
2018-Feb-20 11:29N 26°04' W 080°09'0 0.0
2018-Feb-20 10:59N 26°04' W 080°09'0 0.0
2018-Feb-20 10:29N 26°04' W 080°09'0 0.0
2018-Feb-20 09:59N 26°04' W 080°09'0 0.0
2018-Feb-20 09:29N 26°04' W 080°09'0 0.0
2018-Feb-20 08:59N 26°04' W 080°09'0 0.0
2018-Feb-20 08:29N 26°04' W 080°09'0 0.0
2018-Feb-20 07:58N 26°04' W 080°09'0 0.0
2018-Feb-20 07:28N 26°04' W 080°09'0 0.1
2018-Feb-20 06:58N 26°04' W 080°09'0 0.0
2018-Feb-20 06:28N 26°04' W 080°09'0 0.0
2018-Feb-20 05:58N 26°04' W 080°09'0 0.1
2018-Feb-20 05:28N 26°04' W 080°09'0 0.0
2018-Feb-20 04:55N 26°04' W 080°09'0 0.1
2018-Feb-20 04:28N 26°04' W 080°09'0 0.0
2018-Feb-20 03:58N 26°04' W 080°09'0 0.0
2018-Feb-20 03:28N 26°04' W 080°09'0 0.0
2018-Feb-20 02:58N 26°04' W 080°09'0 0.0
2018-Feb-20 02:28N 26°04' W 080°09'0 0.0
2018-Feb-20 01:58N 26°04' W 080°09'0 0.0
2018-Feb-20 01:28N 26°04' W 080°09'0 0.0
2018-Feb-20 00:58N 26°04' W 080°09'0 0.0
2018-Feb-20 00:25N 26°04' W 080°09'0 0.0
2018-Feb-19 23:58N 26°04' W 080°09'0 0.0
2018-Feb-19 23:28N 26°04' W 080°09'0 0.0
2018-Feb-19 22:58N 26°04' W 080°09'0 0.0
2018-Feb-19 22:28N 26°04' W 080°09'0 0.0
2018-Feb-19 21:58N 26°04' W 080°09'0 0.0
2018-Feb-19 21:28N 26°04' W 080°09'0 0.0
2018-Feb-19 20:58N 26°04' W 080°09'0 0.0
2018-Feb-19 20:28N 26°04' W 080°09'0 0.0
2018-Feb-19 19:58N 26°04' W 080°09'0 0.0
2018-Feb-19 19:28N 26°04' W 080°09'0 0.0
2018-Feb-19 18:58N 26°04' W 080°09'0 0.0
2018-Feb-19 18:28N 26°04' W 080°09'0 0.0
2018-Feb-19 17:58N 26°04' W 080°09'0 0.0
2018-Feb-19 17:28N 26°04' W 080°09'0 0.0
2018-Feb-19 16:58N 26°04' W 080°09'0 0.0
2018-Feb-19 16:28N 26°04' W 080°09'0 0.0
2018-Feb-19 15:58N 26°04' W 080°09'0 0.0
2018-Feb-19 15:28N 26°04' W 080°09'0 0.0
2018-Feb-19 14:58N 26°04' W 080°09'0 0.0
2018-Feb-19 14:28N 26°04' W 080°09'0 0.0
2018-Feb-19 13:58N 26°04' W 080°09'0 0.0
2018-Feb-19 13:30N 26°04' W 080°09'0 0.0
2018-Feb-19 13:00N 26°04' W 080°09'0 0.0
2018-Feb-19 12:30N 26°04' W 080°09'0 0.0
2018-Feb-19 12:00N 26°04' W 080°09'0 0.0
2018-Feb-19 11:30N 26°04' W 080°09'0 0.0
2018-Feb-19 11:00N 26°04' W 080°09'0 0.0
2018-Feb-19 10:30N 26°04' W 080°09'0 0.0
2018-Feb-19 10:00N 26°04' W 080°09'0 0.0
2018-Feb-19 09:30N 26°04' W 080°09'0 0.0
2018-Feb-19 09:00N 26°04' W 080°09'0 0.0
2018-Feb-19 08:30N 26°04' W 080°09'0 0.0
2018-Feb-19 08:00N 26°04' W 080°09'0 0.0
2018-Feb-19 07:30N 26°04' W 080°09'0 0.0
2018-Feb-19 07:00N 26°04' W 080°09'0 0.0
2018-Feb-19 06:30N 26°04' W 080°09'0 0.0
2018-Feb-19 06:00N 26°04' W 080°09'0 0.0
2018-Feb-19 05:30N 26°04' W 080°09'0 0.0
2018-Feb-19 05:00N 26°04' W 080°09'0 0.0
2018-Feb-19 04:30N 26°04' W 080°09'0 0.0
2018-Feb-19 04:00N 26°04' W 080°09'0 0.0
2018-Feb-19 03:30N 26°04' W 080°09'0 0.0
2018-Feb-19 03:00N 26°04' W 080°09'0 0.0
2018-Feb-19 02:30N 26°04' W 080°09'0 0.0
2018-Feb-19 02:00N 26°04' W 080°09'0 0.0
2018-Feb-19 01:30N 26°04' W 080°09'0 0.0
2018-Feb-19 01:00N 26°04' W 080°09'0 0.0
2018-Feb-19 00:30N 26°04' W 080°09'0 0.0
2018-Feb-18 23:59N 26°04' W 080°09'0 0.0
2018-Feb-18 23:29N 26°04' W 080°09'0 0.0
2018-Feb-18 22:59N 26°04' W 080°09'0 0.0
2018-Feb-18 22:29N 26°04' W 080°09'0 0.0
2018-Feb-18 21:59N 26°04' W 080°09'0 0.0
2018-Feb-18 21:29N 26°04' W 080°09'0 0.0
2018-Feb-18 20:56N 26°04' W 080°09'0 0.0
2018-Feb-18 20:29N 26°04' W 080°09'0 0.0
2018-Feb-18 19:59N 26°04' W 080°09'0 0.0
2018-Feb-18 19:26N 26°04' W 080°09'0 0.0
2018-Feb-18 18:59N 26°04' W 080°09'0 0.0
2018-Feb-18 18:29N 26°04' W 080°09'0 0.0
2018-Feb-18 17:59N 26°04' W 080°09'0 0.0
2018-Feb-18 17:29N 26°04' W 080°09'0 0.0
2018-Feb-18 16:59N 26°04' W 080°09'0 0.0
2018-Feb-18 16:29N 26°04' W 080°09'0 0.0
2018-Feb-18 15:59N 26°04' W 080°09'0 0.0
2018-Feb-18 15:28N 26°04' W 080°09'0 0.0
2018-Feb-18 14:59N 26°04' W 080°09'0 0.0
2018-Feb-18 14:29N 26°04' W 080°09'0 0.0
2018-Feb-18 13:59N 26°04' W 080°09'0 0.0
2018-Feb-18 13:29N 26°04' W 080°09'0 0.0
2018-Feb-18 12:58N 26°04' W 080°09'0 0.0
2018-Feb-18 12:29N 26°04' W 080°09'0 0.0
2018-Feb-18 11:59N 26°04' W 080°09'0 0.0
2018-Feb-18 11:29N 26°04' W 080°09'0 0.0
2018-Feb-18 10:59N 26°04' W 080°09'0 0.0
2018-Feb-18 10:29N 26°04' W 080°09'0 0.0
2018-Feb-18 09:58N 26°04' W 080°09'0 0.0
2018-Feb-18 09:25N 26°04' W 080°09'0 0.0
2018-Feb-18 08:58N 26°04' W 080°09'0 0.0
2018-Feb-18 08:29N 26°04' W 080°09'0 0.0
2018-Feb-18 07:58N 26°04' W 080°09'0 0.0
2018-Feb-18 07:28N 26°04' W 080°09'0 0.0
2018-Feb-18 06:58N 26°04' W 080°09'0 0.0
2018-Feb-18 06:28N 26°04' W 080°09'0 0.0
2018-Feb-18 05:58N 26°04' W 080°09'0 0.0
2018-Feb-18 05:28N 26°04' W 080°09'0 0.0
2018-Feb-18 04:58N 26°04' W 080°09'0 0.0
2018-Feb-18 04:22N 26°04' W 080°09'0 0.0
2018-Feb-18 03:58N 26°04' W 080°09'0 0.0
2018-Feb-18 03:28N 26°04' W 080°09'0 0.0
2018-Feb-18 02:58N 26°04' W 080°09'0 0.0
2018-Feb-18 02:28N 26°04' W 080°09'0 0.0
2018-Feb-18 01:58N 26°04' W 080°09'0 0.0
2018-Feb-18 01:28N 26°04' W 080°09'0 0.0
2018-Feb-18 00:55N 26°04' W 080°09'0 0.0
2018-Feb-18 00:28N 26°04' W 080°09'0 0.0
2018-Feb-17 23:58N 26°04' W 080°09'0 0.0
2018-Feb-17 23:28N 26°04' W 080°09'0 0.0
2018-Feb-17 22:58N 26°04' W 080°09'0 0.0
2018-Feb-17 22:28N 26°04' W 080°09'0 0.0
2018-Feb-17 21:58N 26°04' W 080°09'0 0.0
2018-Feb-17 21:28N 26°04' W 080°09'0 0.0
2018-Feb-17 20:58N 26°04' W 080°09'0 0.0
2018-Feb-17 20:28N 26°04' W 080°09'0 0.0
2018-Feb-17 19:58N 26°04' W 080°09'0 0.0
2018-Feb-17 19:28N 26°04' W 080°09'0 0.0
2018-Feb-17 18:58N 26°04' W 080°09'0 0.0
2018-Feb-17 18:28N 26°04' W 080°09'0 0.0
2018-Feb-17 17:58N 26°04' W 080°09'0 0.0
2018-Feb-17 17:28N 26°04' W 080°09'0 0.0
2018-Feb-17 16:55N 26°04' W 080°09'0 0.0
2018-Feb-17 16:25N 26°04' W 080°09'0 0.0
2018-Feb-17 15:58N 26°04' W 080°09'0 0.0
2018-Feb-17 15:28N 26°04' W 080°09'0 0.0
2018-Feb-17 14:58N 26°04' W 080°09'0 0.0
2018-Feb-17 14:28N 26°04' W 080°09'0 0.0
2018-Feb-17 13:58N 26°04' W 080°09'0 0.0
2018-Feb-17 13:28N 26°04' W 080°09'0 0.0
2018-Feb-17 12:58N 26°04' W 080°09'0 0.0
2018-Feb-17 12:28N 26°04' W 080°09'0 0.0
2018-Feb-17 11:58N 26°04' W 080°09'0 0.0
2018-Feb-17 11:28N 26°04' W 080°09'0 0.0
2018-Feb-17 10:58N 26°04' W 080°09'0 0.0
2018-Feb-17 10:28N 26°04' W 080°09'0 0.0
2018-Feb-17 09:58N 26°04' W 080°09'0 0.0
2018-Feb-17 09:28N 26°04' W 080°09'0 0.0
2018-Feb-17 08:58N 26°04' W 080°09'0 0.0
2018-Feb-17 08:28N 26°04' W 080°09'0 0.0
2018-Feb-17 07:59N 26°04' W 080°09'0 0.0
2018-Feb-17 07:29N 26°04' W 080°09'0 0.0
2018-Feb-17 06:59N 26°04' W 080°09'0 0.0
2018-Feb-17 06:29N 26°04' W 080°09'0 0.0
2018-Feb-17 05:59N 26°04' W 080°09'0 0.0
2018-Feb-17 05:29N 26°04' W 080°09'0 0.0
2018-Feb-17 04:59N 26°04' W 080°09'0 0.0
2018-Feb-17 04:26N 26°04' W 080°09'0 0.0
2018-Feb-17 03:59N 26°04' W 080°09'0 0.0
2018-Feb-17 03:29N 26°04' W 080°09'0 0.0
2018-Feb-17 02:59N 26°04' W 080°09'0 0.0
2018-Feb-17 02:29N 26°04' W 080°09'0 0.0
2018-Feb-17 01:59N 26°04' W 080°09'0 0.0
2018-Feb-17 01:28N 26°04' W 080°09'0 0.0
2018-Feb-17 00:58N 26°04' W 080°09'0 0.0
2018-Feb-17 00:28N 26°04' W 080°09'0 0.0
2018-Feb-16 23:58N 26°04' W 080°09'0 0.0
2018-Feb-16 23:28N 26°04' W 080°09'0 0.0
2018-Feb-16 22:58N 26°04' W 080°09'0 0.0
2018-Feb-16 22:28N 26°04' W 080°09'0 0.0
2018-Feb-16 21:58N 26°04' W 080°09'0 0.0
2018-Feb-16 21:28N 26°04' W 080°09'0 0.0
2018-Feb-16 20:58N 26°04' W 080°09'0 0.0
2018-Feb-16 20:28N 26°04' W 080°09'0 0.0
2018-Feb-16 19:58N 26°04' W 080°09'0 0.0
2018-Feb-16 19:28N 26°04' W 080°09'0 0.0
2018-Feb-16 18:58N 26°04' W 080°09'0 0.0
2018-Feb-16 18:28N 26°04' W 080°09'0 0.0
2018-Feb-16 17:58N 26°04' W 080°09'0 0.0
2018-Feb-16 17:28N 26°04' W 080°09'0 0.0
2018-Feb-16 16:55N 26°04' W 080°09'0 0.0
2018-Feb-16 16:25N 26°04' W 080°09'0 0.0
2018-Feb-16 15:58N 26°04' W 080°09'0 0.0
2018-Feb-16 15:28N 26°04' W 080°09'0 0.0
2018-Feb-16 14:58N 26°04' W 080°09'0 0.0
2018-Feb-16 14:28N 26°04' W 080°09'0 0.0
2018-Feb-16 13:58N 26°04' W 080°09'0 0.0
2018-Feb-16 13:28N 26°04' W 080°09'0 0.0
2018-Feb-16 12:58N 26°04' W 080°09'0 0.0
2018-Feb-16 12:28N 26°04' W 080°09'0 0.0
2018-Feb-16 11:58N 26°04' W 080°09'0 0.0
2018-Feb-16 11:28N 26°04' W 080°09'0 0.0
2018-Feb-16 10:58N 26°04' W 080°09'0 0.0
2018-Feb-16 10:28N 26°04' W 080°09'0 0.0
2018-Feb-16 09:55N 26°04' W 080°09'0 0.0
2018-Feb-16 09:28N 26°04' W 080°09'0 0.0
2018-Feb-16 08:58N 26°04' W 080°09'0 0.0
2018-Feb-16 08:28N 26°04' W 080°09'0 0.0
2018-Feb-16 07:58N 26°04' W 080°09'0 0.0
2018-Feb-16 07:28N 26°04' W 080°09'0 0.0
2018-Feb-16 06:58N 26°04' W 080°09'0 0.0
2018-Feb-16 06:28N 26°04' W 080°09'0 0.0
2018-Feb-16 05:58N 26°04' W 080°09'0 0.0
2018-Feb-16 05:28N 26°04' W 080°09'0 0.0
2018-Feb-16 04:55N 26°04' W 080°09'0 0.0
2018-Feb-16 04:25N 26°04' W 080°09'0 0.0
2018-Feb-16 03:58N 26°04' W 080°09'0 0.0
2018-Feb-16 03:28N 26°04' W 080°09'0 0.0
2018-Feb-16 02:58N 26°04' W 080°09'0 0.0
2018-Feb-16 02:28N 26°04' W 080°09'0 0.0
2018-Feb-16 01:58N 26°04' W 080°09'0 0.0
2018-Feb-16 01:31N 26°04' W 080°09'0 0.0
2018-Feb-16 01:00N 26°04' W 080°09'0 0.0
2018-Feb-16 00:30N 26°04' W 080°09'0 0.0
2018-Feb-16 00:00N 26°04' W 080°09'0 0.0
2018-Feb-15 23:30N 26°04' W 080°09'0 0.0
2018-Feb-15 23:00N 26°04' W 080°09'0 0.0
2018-Feb-15 22:30N 26°04' W 080°09'0 0.0
2018-Feb-15 22:00N 26°04' W 080°09'0 0.0
2018-Feb-15 21:30N 26°04' W 080°09'0 0.0
2018-Feb-15 21:00N 26°04' W 080°09'0 0.0
2018-Feb-15 20:30N 26°04' W 080°09'0 0.0
2018-Feb-15 20:00N 26°04' W 080°09'0 0.0
2018-Feb-15 19:30N 26°04' W 080°09'0 0.0
2018-Feb-15 19:00N 26°04' W 080°09'0 0.0
2018-Feb-15 18:30N 26°04' W 080°09'0 0.0
2018-Feb-15 18:00N 26°04' W 080°09'0 0.0
2018-Feb-15 17:30N 26°04' W 080°09'0 0.0
2018-Feb-15 17:00N 26°04' W 080°09'0 0.0
2018-Feb-15 16:30N 26°04' W 080°09'0 0.0
2018-Feb-15 15:57N 26°04' W 080°09'0 0.0
2018-Feb-15 15:30N 26°04' W 080°09'0 0.0
2018-Feb-15 15:00N 26°04' W 080°09'0 0.0
2018-Feb-15 14:30N 26°04' W 080°09'0 0.0
2018-Feb-15 14:00N 26°04' W 080°09'0 0.0
2018-Feb-15 13:30N 26°04' W 080°09'0 0.0
2018-Feb-15 13:00N 26°04' W 080°09'0 0.0
2018-Feb-15 12:30N 26°04' W 080°09'0 0.0
2018-Feb-15 12:00N 26°04' W 080°09'0 0.0
2018-Feb-15 11:30N 26°04' W 080°09'0 0.0
2018-Feb-15 11:00N 26°04' W 080°09'0 0.0
2018-Feb-15 10:30N 26°04' W 080°09'0 0.0
2018-Feb-15 10:00N 26°04' W 080°09'0 0.0
2018-Feb-15 09:30N 26°04' W 080°09'0 0.0
2018-Feb-15 09:00N 26°04' W 080°09'0 0.0
2018-Feb-15 08:30N 26°04' W 080°09'0 0.0
2018-Feb-15 08:00N 26°04' W 080°09'0 0.0
2018-Feb-15 07:30N 26°04' W 080°09'0 0.0
2018-Feb-15 07:00N 26°04' W 080°09'0 0.0
2018-Feb-15 06:24N 26°04' W 080°09'0 0.0
2018-Feb-15 06:00N 26°04' W 080°09'0 0.0
2018-Feb-15 05:30N 26°04' W 080°09'0 0.0
2018-Feb-15 04:58N 26°04' W 080°09'0 0.0
2018-Feb-15 04:28N 26°04' W 080°09'0 0.0
2018-Feb-15 03:58N 26°04' W 080°09'0 0.0
2018-Feb-15 03:28N 26°04' W 080°09'0 0.0
2018-Feb-15 02:58N 26°04' W 080°09'0 0.0
2018-Feb-15 02:28N 26°04' W 080°09'0 0.0
2018-Feb-15 01:58N 26°04' W 080°09'0 0.0
2018-Feb-15 01:25N 26°04' W 080°09'0 0.0
2018-Feb-15 00:58N 26°04' W 080°09'0 0.0
2018-Feb-15 00:30N 26°04' W 080°09'0 0.0
2018-Feb-15 00:00N 26°04' W 080°09'0 0.0
2018-Feb-14 23:30N 26°04' W 080°09'0 0.0
2018-Feb-14 23:00N 26°04' W 080°09'0 0.0
2018-Feb-14 22:30N 26°04' W 080°09'0 0.0
2018-Feb-14 22:00N 26°04' W 080°09'0 0.0
2018-Feb-14 21:30N 26°04' W 080°09'0 0.0
2018-Feb-14 21:00N 26°04' W 080°09'0 0.0
2018-Feb-14 20:30N 26°04' W 080°09'0 0.0
2018-Feb-14 20:00N 26°04' W 080°09'0 0.0
2018-Feb-14 19:30N 26°04' W 080°09'0 0.0
2018-Feb-14 19:00N 26°04' W 080°09'0 0.0
2018-Feb-14 18:30N 26°04' W 080°09'0 0.0
2018-Feb-14 18:00N 26°04' W 080°09'0 0.0
2018-Feb-14 17:30N 26°04' W 080°09'0 0.0
2018-Feb-14 17:00N 26°04' W 080°09'0 0.0
2018-Feb-14 16:30N 26°04' W 080°09'0 0.0
2018-Feb-14 16:00N 26°04' W 080°09'0 0.0
2018-Feb-14 15:30N 26°04' W 080°09'  
Track history (hours):
 
Tides and Currents Weather Stations Pressure Air Temp Water Temp Dewpoint Dewpoint Depression Visibility Wind Speed Wind Dir Waves Ship Positions

Shades Of Gray

Owner: Epstein, Michael S, Arnold, MD. More information available from US FCC via Universal Licensing System and Coast Guard Vessel Documentation Center.

Last reported at 2018-Feb-24 15:20 UTC. Time now 2018-Feb-25 23:37 UTC.
Position N 25°38' W 080°08'.

Type: Pleasure craft. MMSI: 367686340.

Date/timePositionNaut miles runAvg speedWind from/ knotsBaromVisibWave heightAir tempDewpointWater temp
2018-Feb-24 15:20N 25°38' W 080°08'3 7.0
2018-Feb-24 14:51N 25°40' W 080°10'0 0.0
2018-Feb-24 14:30N 25°40' W 080°10'0 0.0
2018-Feb-24 14:00N 25°40' W 080°10'0 0.0
2018-Feb-24 13:27N 25°40' W 080°10'0 0.0
2018-Feb-24 12:57N 25°40' W 080°10'0 0.1
2018-Feb-24 12:24N 25°40' W 080°10'0 0.0
2018-Feb-24 12:00N 25°40' W 080°10'0 0.0
2018-Feb-24 11:30N 25°40' W 080°10'0 0.0
2018-Feb-24 11:00N 25°40' W 080°10'0 0.0
2018-Feb-24 10:24N 25°40' W 080°10'0 0.0
2018-Feb-24 09:54N 25°40' W 080°10'0 0.0
2018-Feb-24 09:30N 25°40' W 080°10'0 0.0
2018-Feb-24 08:57N 25°40' W 080°10'0 0.0
2018-Feb-24 08:30N 25°40' W 080°10'0 0.0
2018-Feb-24 07:57N 25°40' W 080°10'0 0.0
2018-Feb-24 07:30N 25°40' W 080°10'0 0.0
2018-Feb-24 07:00N 25°40' W 080°10'0 0.0
2018-Feb-24 06:30N 25°40' W 080°10'0 0.0
2018-Feb-24 05:57N 25°40' W 080°10'0 0.0
2018-Feb-24 05:30N 25°40' W 080°10'0 0.0
2018-Feb-24 05:00N 25°40' W 080°10'0 0.0
2018-Feb-24 04:30N 25°40' W 080°10'0 0.0
2018-Feb-24 04:00N 25°40' W 080°10'0 0.0
2018-Feb-24 03:30N 25°40' W 080°10'0 0.0
2018-Feb-24 03:00N 25°40' W 080°10'0 0.0
2018-Feb-24 02:30N 25°40' W 080°10'0 0.0
2018-Feb-24 02:00N 25°40' W 080°10'0 0.0
2018-Feb-24 01:27N 25°40' W 080°10'0 0.5
2018-Feb-24 01:00N 25°41' W 080°10'611.1
2018-Feb-24 00:30N 25°46' W 080°11'4 9.0
2018-Feb-24 00:00N 25°50' W 080°10'5 9.6
2018-Feb-23 23:29N 25°55' W 080°08'4 7.2
2018-Feb-23 22:58N 25°58' W 080°07'3 7.4
2018-Feb-23 22:30N 26°02' W 080°07'4 7.0
2018-Feb-23 21:58N 26°06' W 080°06'2 4.8
2018-Feb-23 21:30N 26°04' W 080°07'1 2.1
2018-Feb-23 21:00N 26°04' W 080°09'0 0.0
2018-Feb-23 20:30N 26°04' W 080°09'0 0.0
2018-Feb-23 20:00N 26°04' W 080°09'0 0.0
2018-Feb-23 19:29N 26°04' W 080°09'0 0.0
2018-Feb-23 19:00N 26°04' W 080°09'0 0.0
2018-Feb-23 18:30N 26°04' W 080°09'0 0.0
2018-Feb-23 17:59N 26°04' W 080°09'0 0.0
2018-Feb-23 17:30N 26°04' W 080°09'0 0.0
2018-Feb-23 16:59N 26°04' W 080°09'0 0.0
2018-Feb-23 16:30N 26°04' W 080°09'0 0.0
2018-Feb-23 15:59N 26°04' W 080°09'0 0.0
2018-Feb-23 15:29N 26°04' W 080°09'0 0.0
2018-Feb-23 15:00N 26°04' W 080°09'0 0.0
2018-Feb-23 14:30N 26°04' W 080°09'0 0.0
2018-Feb-23 13:59N 26°04' W 080°09'0 0.0
2018-Feb-23 13:29N 26°04' W 080°09'0 0.0
2018-Feb-23 13:00N 26°04' W 080°09'0 0.0
2018-Feb-23 12:29N 26°04' W 080°09'0 0.0
2018-Feb-23 11:59N 26°04' W 080°09'0 0.0
2018-Feb-23 11:30N 26°04' W 080°09'0 0.0
2018-Feb-23 11:00N 26°04' W 080°09'0 0.0
2018-Feb-23 10:30N 26°04' W 080°09'0 0.0
2018-Feb-23 09:58N 26°04' W 080°09'0 0.0
2018-Feb-23 09:29N 26°04' W 080°09'0 0.0
2018-Feb-23 08:55N 26°04' W 080°09'0 0.0
2018-Feb-23 08:28N 26°04' W 080°09'0 0.0
2018-Feb-23 07:58N 26°04' W 080°09'0 0.0
2018-Feb-23 07:29N 26°04' W 080°09'0 0.0
2018-Feb-23 06:55N 26°04' W 080°09'0 0.0
2018-Feb-23 06:25N 26°04' W 080°09'0 0.0
2018-Feb-23 05:59N 26°04' W 080°09'0 0.0
2018-Feb-23 05:29N 26°04' W 080°09'0 0.0
2018-Feb-23 04:59N 26°04' W 080°09'0 0.0
2018-Feb-23 04:29N 26°04' W 080°09'0 0.0
2018-Feb-23 03:59N 26°04' W 080°09'0 0.0
2018-Feb-23 03:29N 26°04' W 080°09'0 0.0
2018-Feb-23 02:59N 26°04' W 080°09'0 0.0
2018-Feb-23 02:29N 26°04' W 080°09'0 0.0
2018-Feb-23 01:59N 26°04' W 080°09'0 0.0
2018-Feb-23 01:29N 26°04' W 080°09'0 0.0
2018-Feb-23 00:59N 26°04' W 080°09'0 0.0
2018-Feb-23 00:29N 26°04' W 080°09'0 0.0
2018-Feb-22 23:59N 26°04' W 080°09'0 0.0
2018-Feb-22 23:29N 26°04' W 080°09'0 0.0
2018-Feb-22 22:59N 26°04' W 080°09'0 0.0
2018-Feb-22 22:29N 26°04' W 080°09'0 0.0
2018-Feb-22 21:59N 26°04' W 080°09'0 0.0
2018-Feb-22 21:29N 26°04' W 080°09'0 0.0
2018-Feb-22 20:59N 26°04' W 080°09'0 0.0
2018-Feb-22 20:29N 26°04' W 080°09'0 0.0
2018-Feb-22 19:59N 26°04' W 080°09'0 0.0
2018-Feb-22 19:29N 26°04' W 080°09'0 0.0
2018-Feb-22 18:59N 26°04' W 080°09'0 0.0
2018-Feb-22 18:29N 26°04' W 080°09'0 0.0
2018-Feb-22 17:59N 26°04' W 080°09'0 0.0
2018-Feb-22 17:29N 26°04' W 080°09'0 0.0
2018-Feb-22 16:59N 26°04' W 080°09'0 0.0
2018-Feb-22 16:29N 26°04' W 080°09'0 0.0
2018-Feb-22 15:59N 26°04' W 080°09'0 0.0
2018-Feb-22 15:29N 26°04' W 080°09'0 0.0
2018-Feb-22 14:59N 26°04' W 080°09'0 0.0
2018-Feb-22 14:29N 26°04' W 080°09'0 0.0
2018-Feb-22 13:59N 26°04' W 080°09'0 0.0
2018-Feb-22 13:29N 26°04' W 080°09'0 0.0
2018-Feb-22 12:59N 26°04' W 080°09'0 0.0
2018-Feb-22 12:29N 26°04' W 080°09'0 0.0
2018-Feb-22 11:59N 26°04' W 080°09'0 0.0
2018-Feb-22 11:29N 26°04' W 080°09'0 0.0
2018-Feb-22 10:59N 26°04' W 080°09'0 0.0
2018-Feb-22 10:29N 26°04' W 080°09'0 0.0
2018-Feb-22 09:59N 26°04' W 080°09'0 0.0
2018-Feb-22 09:29N 26°04' W 080°09'0 0.0
2018-Feb-22 08:59N 26°04' W 080°09'0 0.0
2018-Feb-22 08:29N 26°04' W 080°09'0 0.0
2018-Feb-22 07:59N 26°04' W 080°09'0 0.0
2018-Feb-22 07:29N 26°04' W 080°09'0 0.0
2018-Feb-22 06:59N 26°04' W 080°09'0 0.0
2018-Feb-22 06:29N 26°04' W 080°09'0 0.0
2018-Feb-22 05:59N 26°04' W 080°09'0 0.0
2018-Feb-22 05:29N 26°04' W 080°09'0 0.0
2018-Feb-22 04:59N 26°04' W 080°09'0 0.0
2018-Feb-22 04:29N 26°04' W 080°09'0 0.0
2018-Feb-22 03:59N 26°04' W 080°09'0 0.0
2018-Feb-22 03:26N 26°04' W 080°09'0 0.0
2018-Feb-22 02:59N 26°04' W 080°09'0 0.0
2018-Feb-22 02:29N 26°04' W 080°09'0 0.0
2018-Feb-22 01:59N 26°04' W 080°09'0 0.0
2018-Feb-22 01:29N 26°04' W 080°09'0 0.0
2018-Feb-22 00:59N 26°04' W 080°09'0 0.0
2018-Feb-22 00:29N 26°04' W 080°09'0 0.0
2018-Feb-21 23:59N 26°04' W 080°09'0 0.0
2018-Feb-21 23:29N 26°04' W 080°09'0 0.0
2018-Feb-21 22:59N 26°04' W 080°09'0 0.0
2018-Feb-21 22:29N 26°04' W 080°09'0 0.0
2018-Feb-21 21:59N 26°04' W 080°09'0 0.0
2018-Feb-21 21:29N 26°04' W 080°09'0 0.0
2018-Feb-21 20:59N 26°04' W 080°09'0 0.0
2018-Feb-21 20:29N 26°04' W 080°09'0 0.0
2018-Feb-21 19:59N 26°04' W 080°09'0 0.0
2018-Feb-21 19:29N 26°04' W 080°09'0 0.0
2018-Feb-21 18:59N 26°04' W 080°09'0 0.0
2018-Feb-21 18:29N 26°04' W 080°09'0 0.0
2018-Feb-21 17:59N 26°04' W 080°09'0 0.0
2018-Feb-21 17:29N 26°04' W 080°09'0 0.0
2018-Feb-21 16:59N 26°04' W 080°09'0 0.0
2018-Feb-21 16:28N 26°04' W 080°09'0 0.0
2018-Feb-21 15:58N 26°04' W 080°09'0 0.0
2018-Feb-21 15:30N 26°04' W 080°09'0 0.0
2018-Feb-21 14:58N 26°04' W 080°09'0 0.0
2018-Feb-21 14:28N 26°04' W 080°09'0 0.0
2018-Feb-21 13:58N 26°04' W 080°09'0 0.0
2018-Feb-21 13:28N 26°04' W 080°09'0 0.0
2018-Feb-21 12:58N 26°04' W 080°09'0 0.0
2018-Feb-21 12:28N 26°04' W 080°09'0 0.0
2018-Feb-21 11:58N 26°04' W 080°09'0 0.0
2018-Feb-21 11:28N 26°04' W 080°09'0 0.0
2018-Feb-21 10:58N 26°04' W 080°09'0 0.0
2018-Feb-21 10:28N 26°04' W 080°09'0 0.0
2018-Feb-21 09:58N 26°04' W 080°09'0 0.0
2018-Feb-21 09:28N 26°04' W 080°09'0 0.0
2018-Feb-21 08:58N 26°04' W 080°09'0 0.0
2018-Feb-21 08:28N 26°04' W 080°09'0 0.0
2018-Feb-21 07:58N 26°04' W 080°09'0 0.0
2018-Feb-21 07:28N 26°04' W 080°09'0 0.0
2018-Feb-21 06:58N 26°04' W 080°09'0 0.0
2018-Feb-21 06:28N 26°04' W 080°09'0 0.0
2018-Feb-21 05:58N 26°04' W 080°09'0 0.0
2018-Feb-21 05:28N 26°04' W 080°09'0 0.0
2018-Feb-21 04:58N 26°04' W 080°09'0 0.1
2018-Feb-21 04:28N 26°04' W 080°09'0 0.0
2018-Feb-21 03:58N 26°04' W 080°09'0 0.0
2018-Feb-21 03:28N 26°04' W 080°09'0 0.0
2018-Feb-21 02:58N 26°04' W 080°09'0 0.0
2018-Feb-21 02:28N 26°04' W 080°09'0 0.0
2018-Feb-21 01:58N 26°04' W 080°09'0 0.0
2018-Feb-21 01:28N 26°04' W 080°09'0 0.0
2018-Feb-21 00:58N 26°04' W 080°09'0 0.0
2018-Feb-21 00:28N 26°04' W 080°09'0 0.0
2018-Feb-20 23:59N 26°04' W 080°09'0 0.0
2018-Feb-20 23:29N 26°04' W 080°09'0 0.0
2018-Feb-20 22:59N 26°04' W 080°09'0 0.0
2018-Feb-20 22:29N 26°04' W 080°09'0 0.0
2018-Feb-20 21:59N 26°04' W 080°09'0 0.0
2018-Feb-20 21:29N 26°04' W 080°09'0 0.0
2018-Feb-20 20:59N 26°04' W 080°09'0 0.0
2018-Feb-20 20:29N 26°04' W 080°09'0 0.0
2018-Feb-20 19:59N 26°04' W 080°09'0 0.0
2018-Feb-20 19:29N 26°04' W 080°09'0 0.0
2018-Feb-20 18:59N 26°04' W 080°09'0 0.0
2018-Feb-20 18:29N 26°04' W 080°09'0 0.0
2018-Feb-20 17:59N 26°04' W 080°09'0 0.0
2018-Feb-20 17:29N 26°04' W 080°09'0 0.0
2018-Feb-20 16:59N 26°04' W 080°09'0 0.0
2018-Feb-20 16:29N 26°04' W 080°09'0 0.0
2018-Feb-20 15:59N 26°04' W 080°09'0 0.0
2018-Feb-20 15:29N 26°04' W 080°09'0 0.0
2018-Feb-20 14:59N 26°04' W 080°09'0 0.0
2018-Feb-20 14:29N 26°04' W 080°09'0 0.0
2018-Feb-20 13:59N 26°04' W 080°09'0 0.0
2018-Feb-20 13:29N 26°04' W 080°09'0 0.0
2018-Feb-20 12:59N 26°04' W 080°09'0 0.0
2018-Feb-20 12:29N 26°04' W 080°09'0 0.0
2018-Feb-20 11:59N 26°04' W 080°09'0 0.0
2018-Feb-20 11:29N 26°04' W 080°09'0 0.0
2018-Feb-20 10:59N 26°04' W 080°09'0 0.0
2018-Feb-20 10:29N 26°04' W 080°09'0 0.0
2018-Feb-20 09:59N 26°04' W 080°09'0 0.0
2018-Feb-20 09:29N 26°04' W 080°09'0 0.0
2018-Feb-20 08:59N 26°04' W 080°09'0 0.0
2018-Feb-20 08:29N 26°04' W 080°09'0 0.0
2018-Feb-20 07:58N 26°04' W 080°09'0 0.0
2018-Feb-20 07:28N 26°04' W 080°09'0 0.1
2018-Feb-20 06:58N 26°04' W 080°09'0 0.0
2018-Feb-20 06:28N 26°04' W 080°09'0 0.0
2018-Feb-20 05:58N 26°04' W 080°09'0 0.1
2018-Feb-20 05:28N 26°04' W 080°09'0 0.0
2018-Feb-20 04:55N 26°04' W 080°09'0 0.1
2018-Feb-20 04:28N 26°04' W 080°09'0 0.0
2018-Feb-20 03:58N 26°04' W 080°09'0 0.0
2018-Feb-20 03:28N 26°04' W 080°09'0 0.0
2018-Feb-20 02:58N 26°04' W 080°09'0 0.0
2018-Feb-20 02:28N 26°04' W 080°09'0 0.0
2018-Feb-20 01:58N 26°04' W 080°09'0 0.0
2018-Feb-20 01:28N 26°04' W 080°09'0 0.0
2018-Feb-20 00:58N 26°04' W 080°09'0 0.0
2018-Feb-20 00:25N 26°04' W 080°09'0 0.0
2018-Feb-19 23:58N 26°04' W 080°09'0 0.0
2018-Feb-19 23:28N 26°04' W 080°09'0 0.0
2018-Feb-19 22:58N 26°04' W 080°09'0 0.0
2018-Feb-19 22:28N 26°04' W 080°09'0 0.0
2018-Feb-19 21:58N 26°04' W 080°09'0 0.0
2018-Feb-19 21:28N 26°04' W 080°09'0 0.0
2018-Feb-19 20:58N 26°04' W 080°09'0 0.0
2018-Feb-19 20:28N 26°04' W 080°09'0 0.0
2018-Feb-19 19:58N 26°04' W 080°09'0 0.0
2018-Feb-19 19:28N 26°04' W 080°09'0 0.0
2018-Feb-19 18:58N 26°04' W 080°09'0 0.0
2018-Feb-19 18:28N 26°04' W 080°09'0 0.0
2018-Feb-19 17:58N 26°04' W 080°09'0 0.0
2018-Feb-19 17:28N 26°04' W 080°09'0 0.0
2018-Feb-19 16:58N 26°04' W 080°09'0 0.0
2018-Feb-19 16:28N 26°04' W 080°09'0 0.0
2018-Feb-19 15:58N 26°04' W 080°09'0 0.0
2018-Feb-19 15:28N 26°04' W 080°09'0 0.0
2018-Feb-19 14:58N 26°04' W 080°09'0 0.0
2018-Feb-19 14:28N 26°04' W 080°09'0 0.0
2018-Feb-19 13:58N 26°04' W 080°09'0 0.0
2018-Feb-19 13:30N 26°04' W 080°09'0 0.0
2018-Feb-19 13:00N 26°04' W 080°09'0 0.0
2018-Feb-19 12:30N 26°04' W 080°09'0 0.0
2018-Feb-19 12:00N 26°04' W 080°09'0 0.0
2018-Feb-19 11:30N 26°04' W 080°09'0 0.0
2018-Feb-19 11:00N 26°04' W 080°09'0 0.0
2018-Feb-19 10:30N 26°04' W 080°09'0 0.0
2018-Feb-19 10:00N 26°04' W 080°09'0 0.0
2018-Feb-19 09:30N 26°04' W 080°09'0 0.0
2018-Feb-19 09:00N 26°04' W 080°09'0 0.0
2018-Feb-19 08:30N 26°04' W 080°09'0 0.0
2018-Feb-19 08:00N 26°04' W 080°09'0 0.0
2018-Feb-19 07:30N 26°04' W 080°09'0 0.0
2018-Feb-19 07:00N 26°04' W 080°09'0 0.0
2018-Feb-19 06:30N 26°04' W 080°09'0 0.0
2018-Feb-19 06:00N 26°04' W 080°09'0 0.0
2018-Feb-19 05:30N 26°04' W 080°09'0 0.0
2018-Feb-19 05:00N 26°04' W 080°09'0 0.0
2018-Feb-19 04:30N 26°04' W 080°09'0 0.0
2018-Feb-19 04:00N 26°04' W 080°09'0 0.0
2018-Feb-19 03:30N 26°04' W 080°09'0 0.0
2018-Feb-19 03:00N 26°04' W 080°09'0 0.0
2018-Feb-19 02:30N 26°04' W 080°09'0 0.0
2018-Feb-19 02:00N 26°04' W 080°09'0 0.0
2018-Feb-19 01:30N 26°04' W 080°09'0 0.0
2018-Feb-19 01:00N 26°04' W 080°09'0 0.0
2018-Feb-19 00:30N 26°04' W 080°09'0 0.0
2018-Feb-18 23:59N 26°04' W 080°09'0 0.0
2018-Feb-18 23:29N 26°04' W 080°09'0 0.0
2018-Feb-18 22:59N 26°04' W 080°09'0 0.0
2018-Feb-18 22:29N 26°04' W 080°09'0 0.0
2018-Feb-18 21:59N 26°04' W 080°09'0 0.0
2018-Feb-18 21:29N 26°04' W 080°09'0 0.0
2018-Feb-18 20:56N 26°04' W 080°09'0 0.0
2018-Feb-18 20:29N 26°04' W 080°09'0 0.0
2018-Feb-18 19:59N 26°04' W 080°09'0 0.0
2018-Feb-18 19:26N 26°04' W 080°09'0 0.0
2018-Feb-18 18:59N 26°04' W 080°09'0 0.0
2018-Feb-18 18:29N 26°04' W 080°09'0 0.0
2018-Feb-18 17:59N 26°04' W 080°09'0 0.0
2018-Feb-18 17:29N 26°04' W 080°09'0 0.0
2018-Feb-18 16:59N 26°04' W 080°09'0 0.0
2018-Feb-18 16:29N 26°04' W 080°09'0 0.0
2018-Feb-18 15:59N 26°04' W 080°09'0 0.0
2018-Feb-18 15:28N 26°04' W 080°09'0 0.0
2018-Feb-18 14:59N 26°04' W 080°09'0 0.0
2018-Feb-18 14:29N 26°04' W 080°09'0 0.0
2018-Feb-18 13:59N 26°04' W 080°09'0 0.0
2018-Feb-18 13:29N 26°04' W 080°09'0 0.0
2018-Feb-18 12:58N 26°04' W 080°09'0 0.0
2018-Feb-18 12:29N 26°04' W 080°09'0 0.0
2018-Feb-18 11:59N 26°04' W 080°09'0 0.0
2018-Feb-18 11:29N 26°04' W 080°09'0 0.0
2018-Feb-18 10:59N 26°04' W 080°09'0 0.0
2018-Feb-18 10:29N 26°04' W 080°09'0 0.0
2018-Feb-18 09:58N 26°04' W 080°09'0 0.0
2018-Feb-18 09:25N 26°04' W 080°09'0 0.0
2018-Feb-18 08:58N 26°04' W 080°09'0 0.0
2018-Feb-18 08:29N 26°04' W 080°09'0 0.0
2018-Feb-18 07:58N 26°04' W 080°09'0 0.0
2018-Feb-18 07:28N 26°04' W 080°09'0 0.0
2018-Feb-18 06:58N 26°04' W 080°09'0 0.0
2018-Feb-18 06:28N 26°04' W 080°09'0 0.0
2018-Feb-18 05:58N 26°04' W 080°09'0 0.0
2018-Feb-18 05:28N 26°04' W 080°09'0 0.0
2018-Feb-18 04:58N 26°04' W 080°09'0 0.0
2018-Feb-18 04:22N 26°04' W 080°09'0 0.0
2018-Feb-18 03:58N 26°04' W 080°09'0 0.0
2018-Feb-18 03:28N 26°04' W 080°09'0 0.0
2018-Feb-18 02:58N 26°04' W 080°09'0 0.0
2018-Feb-18 02:28N 26°04' W 080°09'0 0.0
2018-Feb-18 01:58N 26°04' W 080°09'0 0.0
2018-Feb-18 01:28N 26°04' W 080°09'0 0.0
2018-Feb-18 00:55N 26°04' W 080°09'0 0.0
2018-Feb-18 00:28N 26°04' W 080°09'0 0.0
2018-Feb-17 23:58N 26°04' W 080°09'0 0.0
2018-Feb-17 23:28N 26°04' W 080°09'0 0.0
2018-Feb-17 22:58N 26°04' W 080°09'0 0.0
2018-Feb-17 22:28N 26°04' W 080°09'0 0.0
2018-Feb-17 21:58N 26°04' W 080°09'0 0.0
2018-Feb-17 21:28N 26°04' W 080°09'0 0.0
2018-Feb-17 20:58N 26°04' W 080°09'0 0.0
2018-Feb-17 20:28N 26°04' W 080°09'0 0.0
2018-Feb-17 19:58N 26°04' W 080°09'0 0.0
2018-Feb-17 19:28N 26°04' W 080°09'0 0.0
2018-Feb-17 18:58N 26°04' W 080°09'0 0.0
2018-Feb-17 18:28N 26°04' W 080°09'0 0.0
2018-Feb-17 17:58N 26°04' W 080°09'0 0.0
2018-Feb-17 17:28N 26°04' W 080°09'0 0.0
2018-Feb-17 16:55N 26°04' W 080°09'0 0.0
2018-Feb-17 16:25N 26°04' W 080°09'0 0.0
2018-Feb-17 15:58N 26°04' W 080°09'0 0.0
2018-Feb-17 15:28N 26°04' W 080°09'0 0.0
2018-Feb-17 14:58N 26°04' W 080°09'0 0.0
2018-Feb-17 14:28N 26°04' W 080°09'0 0.0
2018-Feb-17 13:58N 26°04' W 080°09'0 0.0
2018-Feb-17 13:28N 26°04' W 080°09'0 0.0
2018-Feb-17 12:58N 26°04' W 080°09'0 0.0
2018-Feb-17 12:28N 26°04' W 080°09'0 0.0
2018-Feb-17 11:58N 26°04' W 080°09'0 0.0
2018-Feb-17 11:28N 26°04' W 080°09'0 0.0
2018-Feb-17 10:58N 26°04' W 080°09'0 0.0
2018-Feb-17 10:28N 26°04' W 080°09'0 0.0
2018-Feb-17 09:58N 26°04' W 080°09'0 0.0
2018-Feb-17 09:28N 26°04' W 080°09'0 0.0
2018-Feb-17 08:58N 26°04' W 080°09'0 0.0
2018-Feb-17 08:28N 26°04' W 080°09'0 0.0
2018-Feb-17 07:59N 26°04' W 080°09'0 0.0
2018-Feb-17 07:29N 26°04' W 080°09'0 0.0
2018-Feb-17 06:59N 26°04' W 080°09'0 0.0
2018-Feb-17 06:29N 26°04' W 080°09'0 0.0
2018-Feb-17 05:59N 26°04' W 080°09'0 0.0
2018-Feb-17 05:29N 26°04' W 080°09'0 0.0
2018-Feb-17 04:59N 26°04' W 080°09'0 0.0
2018-Feb-17 04:26N 26°04' W 080°09'0 0.0
2018-Feb-17 03:59N 26°04' W 080°09'0 0.0
2018-Feb-17 03:29N 26°04' W 080°09'0 0.0
2018-Feb-17 02:59N 26°04' W 080°09'0 0.0
2018-Feb-17 02:29N 26°04' W 080°09'0 0.0
2018-Feb-17 01:59N 26°04' W 080°09'0 0.0
2018-Feb-17 01:28N 26°04' W 080°09'0 0.0
2018-Feb-17 00:58N 26°04' W 080°09'0 0.0
2018-Feb-17 00:28N 26°04' W 080°09'0 0.0
2018-Feb-16 23:58N 26°04' W 080°09'0 0.0
2018-Feb-16 23:28N 26°04' W 080°09'0 0.0
2018-Feb-16 22:58N 26°04' W 080°09'0 0.0
2018-Feb-16 22:28N 26°04' W 080°09'0 0.0
2018-Feb-16 21:58N 26°04' W 080°09'0 0.0
2018-Feb-16 21:28N 26°04' W 080°09'0 0.0
2018-Feb-16 20:58N 26°04' W 080°09'0 0.0
2018-Feb-16 20:28N 26°04' W 080°09'0 0.0
2018-Feb-16 19:58N 26°04' W 080°09'0 0.0
2018-Feb-16 19:28N 26°04' W 080°09'0 0.0
2018-Feb-16 18:58N 26°04' W 080°09'0 0.0
2018-Feb-16 18:28N 26°04' W 080°09'0 0.0
2018-Feb-16 17:58N 26°04' W 080°09'0 0.0
2018-Feb-16 17:28N 26°04' W 080°09'0 0.0
2018-Feb-16 16:55N 26°04' W 080°09'0 0.0
2018-Feb-16 16:25N 26°04' W 080°09'0 0.0
2018-Feb-16 15:58N 26°04' W 080°09'0 0.0
2018-Feb-16 15:28N 26°04' W 080°09'0 0.0
2018-Feb-16 14:58N 26°04' W 080°09'0 0.0
2018-Feb-16 14:28N 26°04' W 080°09'0 0.0
2018-Feb-16 13:58N 26°04' W 080°09'0 0.0
2018-Feb-16 13:28N 26°04' W 080°09'0 0.0
2018-Feb-16 12:58N 26°04' W 080°09'0 0.0
2018-Feb-16 12:28N 26°04' W 080°09'0 0.0
2018-Feb-16 11:58N 26°04' W 080°09'0 0.0
2018-Feb-16 11:28N 26°04' W 080°09'0 0.0
2018-Feb-16 10:58N 26°04' W 080°09'0 0.0
2018-Feb-16 10:28N 26°04' W 080°09'0 0.0
2018-Feb-16 09:55N 26°04' W 080°09'0 0.0
2018-Feb-16 09:28N 26°04' W 080°09'0 0.0
2018-Feb-16 08:58N 26°04' W 080°09'0 0.0
2018-Feb-16 08:28N 26°04' W 080°09'0 0.0
2018-Feb-16 07:58N 26°04' W 080°09'0 0.0
2018-Feb-16 07:28N 26°04' W 080°09'0 0.0
2018-Feb-16 06:58N 26°04' W 080°09'0 0.0
2018-Feb-16 06:28N 26°04' W 080°09'0 0.0
2018-Feb-16 05:58N 26°04' W 080°09'0 0.0
2018-Feb-16 05:28N 26°04' W 080°09'0 0.0
2018-Feb-16 04:55N 26°04' W 080°09'0 0.0
2018-Feb-16 04:25N 26°04' W 080°09'0 0.0
2018-Feb-16 03:58N 26°04' W 080°09'0 0.0
2018-Feb-16 03:28N 26°04' W 080°09'0 0.0
2018-Feb-16 02:58N 26°04' W 080°09'0 0.0
2018-Feb-16 02:28N 26°04' W 080°09'0 0.0
2018-Feb-16 01:58N 26°04' W 080°09'0 0.0
2018-Feb-16 01:31N 26°04' W 080°09'0 0.0
2018-Feb-16 01:00N 26°04' W 080°09'0 0.0
2018-Feb-16 00:30N 26°04' W 080°09'0 0.0
2018-Feb-16 00:00N 26°04' W 080°09'0 0.0
2018-Feb-15 23:30N 26°04' W 080°09'0 0.0
2018-Feb-15 23:00N 26°04' W 080°09'0 0.0
2018-Feb-15 22:30N 26°04' W 080°09'0 0.0
2018-Feb-15 22:00N 26°04' W 080°09'0 0.0
2018-Feb-15 21:30N 26°04' W 080°09'0 0.0
2018-Feb-15 21:00N 26°04' W 080°09'0 0.0
2018-Feb-15 20:30N 26°04' W 080°09'0 0.0
2018-Feb-15 20:00N 26°04' W 080°09'0 0.0
2018-Feb-15 19:30N 26°04' W 080°09'0 0.0
2018-Feb-15 19:00N 26°04' W 080°09'0 0.0
2018-Feb-15 18:30N 26°04' W 080°09'0 0.0
2018-Feb-15 18:00N 26°04' W 080°09'0 0.0
2018-Feb-15 17:30N 26°04' W 080°09'0 0.0
2018-Feb-15 17:00N 26°04' W 080°09'0 0.0
2018-Feb-15 16:30N 26°04' W 080°09'0 0.0
2018-Feb-15 15:57N 26°04' W 080°09'0 0.0
2018-Feb-15 15:30N 26°04' W 080°09'0 0.0
2018-Feb-15 15:00N 26°04' W 080°09'0 0.0
2018-Feb-15 14:30N 26°04' W 080°09'0 0.0
2018-Feb-15 14:00N 26°04' W 080°09'0 0.0
2018-Feb-15 13:30N 26°04' W 080°09'0 0.0
2018-Feb-15 13:00N 26°04' W 080°09'0 0.0
2018-Feb-15 12:30N 26°04' W 080°09'0 0.0
2018-Feb-15 12:00N 26°04' W 080°09'0 0.0
2018-Feb-15 11:30N 26°04' W 080°09'0 0.0
2018-Feb-15 11:00N 26°04' W 080°09'0 0.0
2018-Feb-15 10:30N 26°04' W 080°09'0 0.0
2018-Feb-15 10:00N 26°04' W 080°09'0 0.0
2018-Feb-15 09:30N 26°04' W 080°09'0 0.0
2018-Feb-15 09:00N 26°04' W 080°09'0 0.0
2018-Feb-15 08:30N 26°04' W 080°09'0 0.0
2018-Feb-15 08:00N 26°04' W 080°09'0 0.0
2018-Feb-15 07:30N 26°04' W 080°09'0 0.0
2018-Feb-15 07:00N 26°04' W 080°09'0 0.0
2018-Feb-15 06:24N 26°04' W 080°09'0 0.0
2018-Feb-15 06:00N 26°04' W 080°09'0 0.0
2018-Feb-15 05:30N 26°04' W 080°09'0 0.0
2018-Feb-15 04:58N 26°04' W 080°09'0 0.0
2018-Feb-15 04:28N 26°04' W 080°09'0 0.0
2018-Feb-15 03:58N 26°04' W 080°09'0 0.0
2018-Feb-15 03:28N 26°04' W 080°09'0 0.0
2018-Feb-15 02:58N 26°04' W 080°09'0 0.0
2018-Feb-15 02:28N 26°04' W 080°09'0 0.0
2018-Feb-15 01:58N 26°04' W 080°09'0 0.0
2018-Feb-15 01:25N 26°04' W 080°09'0 0.0
2018-Feb-15 00:58N 26°04' W 080°09'0 0.0
2018-Feb-15 00:30N 26°04' W 080°09'0 0.0
2018-Feb-15 00:00N 26°04' W 080°09'0 0.0
2018-Feb-14 23:30N 26°04' W 080°09'0 0.0
2018-Feb-14 23:00N 26°04' W 080°09'0 0.0
2018-Feb-14 22:30N 26°04' W 080°09'0 0.0
2018-Feb-14 22:00N 26°04' W 080°09'0 0.0
2018-Feb-14 21:30N 26°04' W 080°09'0 0.0
2018-Feb-14 21:00N 26°04' W 080°09'0 0.0
2018-Feb-14 20:30N 26°04' W 080°09'0 0.0
2018-Feb-14 20:00N 26°04' W 080°09'0 0.0
2018-Feb-14 19:30N 26°04' W 080°09'0 0.0
2018-Feb-14 19:00N 26°04' W 080°09'0 0.0
2018-Feb-14 18:30N 26°04' W 080°09'0 0.0
2018-Feb-14 18:00N 26°04' W 080°09'0 0.0
2018-Feb-14 17:30N 26°04' W 080°09'0 0.0
2018-Feb-14 17:00N 26°04' W 080°09'0 0.0
2018-Feb-14 16:30N 26°04' W 080°09'0 0.0
2018-Feb-14 16:00N 26°04' W 080°09'0 0.0
2018-Feb-14 15:30N 26°04' W 080°09'  

Dump ship's entire track history